Startpagina
METAR-TAF:

METAR-TAF

Vliegvelden :

Amman, Jordanië

breedte: 31-59N, lengte: 035-59E, hoogte: 767 m

Actueel weer

Dit bericht is 53 minuten geleden gemaakt, om 17:00 UTC
Weinig wind
Temperatuur 16°C
Vochtigheid 63%
Druk 1016 hPa
Zicht: 5000 m
Heiigheid

METAR: OJAM 201700Z 00000KT 5000 HZ NSC 16/09 Q1016 NOSIG

Tijdstip: 19:53 (17:53 UTC)

Verwachting

Dit bericht is 53 minuten geleden gemaakt, om 17:00 UTC
Verwachting geldig van 20 om 18 UTC tot 21 om 24 UTC
Wind 6 kt uit het noordnoordoosten
Zicht: 5000 m
Heiigheid
Kans 30%
van 21 om 02 UTC tot 21 om 06 UTC
Wind 1 kt uit variabele richting
Zicht: 4000 m
Wijzigt naar
van 21 om 06 UTC tot 21 om 08 UTC
Wind 6 kt uit het oostzuidoosten
Kans 30%
van 21 om 10 UTC tot 21 om 16 UTC
Zicht: 3000 m
verspreid stof

TAF: OJAM 201700Z 2018/2124 02006KT 5000 HZ NSC PROB30 2102/2106 VRB01KT 4000 BECMG 2106/2108 12006KT PROB30 2110/2116 3000 DU

Waarnemingen en weersverwachtingen van meer dan 4000 vliegvelden (METAR en TAF).

De beschikbare stations zijn de gele en rode punten op de kaart.

Ga met uw muis naar het station om de naam te zien.

Klik dan om waarnemingen en weersverwachtingen te zien.

kaart wijzigen: klik op de groene knoppen met een zwart kruis om in te zoomen, op de groene knop met een streepje om uit te zoomen of op de groene pijlen voor aangrenzende kaarten.


METAR-TAF: